Time;durP1;ratioP1;P1;durP2;ratioP2;P2;SDS_P1;SDS_P2;PMS_P1;PMS_P2;Temp;Humidity;BMP_temperature;BMP_pressure;BME280_temperature;BME280_humidity;BME280_pressure;Samples;Min_cycle;Max_cycle;Signal;HPM_P1;HPM_P2
2021/03/11 00:02:38;;;;;;;151.90;66.82;;;;;;;-1.59;52.36;100511.34;2084754;85;33222;-63
2021/03/11 00:05:41;;;;;;;153.82;69.65;;;;;;;-1.61;52.29;100504.30;2084989;83;29251;-62
2021/03/11 00:08:43;;;;;;;134.45;63.25;;;;;;;-1.61;52.59;100496.01;2084806;85;27680;-63
2021/03/11 00:11:45;;;;;;;139.30;63.17;;;;;;;-1.62;53.61;100494.67;2110529;81;31230;-63
2021/03/11 00:14:47;;;;;;;127.92;58.68;;;;;;;-1.64;53.33;100498.62;2115518;84;33537;-64
2021/03/11 00:17:50;;;;;;;144.32;67.95;;;;;;;-1.63;53.87;100501.69;2127556;82;33172;-62
2021/03/11 00:20:53;;;;;;;151.05;68.62;;;;;;;-1.63;53.83;100491.59;2124826;82;28379;-63
2021/03/11 00:23:54;;;;;;;153.45;65.17;;;;;;;-1.62;54.05;100492.05;2115555;84;27773;-63
2021/03/11 00:26:56;;;;;;;149.93;63.28;;;;;;;-1.62;54.16;100488.10;2115548;84;28583;-63
2021/03/11 00:29:59;;;;;;;146.82;63.33;;;;;;;-1.63;54.71;100483.72;2114900;84;31246;-63
2021/03/11 00:33:01;;;;;;;151.93;65.05;;;;;;;-1.64;54.83;100474.08;2113859;84;33113;-62
2021/03/11 00:36:04;;;;;;;142.95;62.30;;;;;;;-1.64;55.13;100467.09;2115491;84;30520;-63
2021/03/11 00:39:07;;;;;;;152.70;66.28;;;;;;;-1.65;55.30;100469.73;2115289;84;27709;-64
2021/03/11 00:42:09;;;;;;;149.60;64.47;;;;;;;-1.67;55.70;100466.22;2113285;84;28928;-65
2021/03/11 00:45:13;;;;;;;149.15;66.12;;;;;;;-1.67;55.65;100457.03;2114931;84;31582;-62
2021/03/11 00:48:16;;;;;;;154.63;69.00;;;;;;;-1.68;55.63;100445.62;2115643;84;33228;-63
2021/03/11 00:51:18;;;;;;;160.10;69.95;;;;;;;-1.67;55.72;100443.89;2113893;84;29268;-63
2021/03/11 00:54:20;;;;;;;153.80;67.67;;;;;;;-1.69;56.17;100435.57;2114424;84;27681;-64
2021/03/11 00:57:22;;;;;;;160.65;69.45;;;;;;;-1.69;55.83;100434.26;2115458;83;28816;-63
2021/03/11 01:00:25;;;;;;;155.45;66.22;;;;;;;-1.69;56.34;100434.67;2114762;84;31123;-64
2021/03/11 01:03:27;;;;;;;145.38;66.45;;;;;;;-1.72;56.62;100432.03;2115403;84;33128;-64
2021/03/11 01:06:29;;;;;;;152.38;68.22;;;;;;;-1.72;56.59;100430.30;2115490;84;30150;-63
2021/03/11 01:09:32;;;;;;;152.38;66.53;;;;;;;-1.72;57.48;100426.36;2115296;84;27740;-64
2021/03/11 01:12:34;;;;;;;150.10;65.97;;;;;;;-1.72;56.77;100421.53;2119196;83;29314;-62
2021/03/11 01:15:39;;;;;;;153.95;65.87;;;;;;;-1.75;56.96;100410.59;2125094;82;31845;-64
2021/03/11 01:18:41;;;;;;;157.20;68.83;;;;;;;-1.76;57.90;100412.78;2125077;83;33940;-64
2021/03/11 01:21:43;;;;;;;142.32;65.00;;;;;;;-1.77;56.95;100409.70;2076641;85;30344;-63
2021/03/11 01:24:45;;;;;;;146.35;65.92;;;;;;;-1.76;57.35;100404.89;2068919;85;27691;-64
2021/03/11 01:27:47;;;;;;;144.57;64.00;;;;;;;-1.76;57.30;100399.64;2086163;85;28991;-64
2021/03/11 01:30:49;;;;;;;146.32;64.45;;;;;;;-1.76;57.28;100398.33;2124235;83;32542;-64
2021/03/11 01:33:51;;;;;;;147.45;63.40;;;;;;;-1.77;57.42;100397.89;2125013;83;35516;-63
2021/03/11 01:36:54;;;;;;;142.03;63.58;;;;;;;-1.77;57.53;100403.14;2125436;83;29155;-63
2021/03/11 01:39:56;;;;;;;141.35;64.12;;;;;;;-1.79;57.73;100389.13;2084998;85;27718;-64
2021/03/11 01:42:58;;;;;;;148.62;67.58;;;;;;;-1.80;57.80;100390.00;2085579;85;28817;-65
2021/03/11 01:46:00;;;;;;;153.10;65.32;;;;;;;-1.79;58.09;100381.70;2125553;83;31700;-63
2021/03/11 01:49:02;;;;;;;143.50;63.87;;;;;;;-1.81;57.88;100374.25;2128275;82;33257;-63
2021/03/11 01:52:06;;;;;;;149.82;67.35;;;;;;;-1.82;58.16;100362.89;2122981;83;29102;-64
2021/03/11 01:55:10;;;;;;;146.55;63.28;;;;;;;-1.81;58.08;100359.36;2085222;85;27726;-64
2021/03/11 01:58:13;;;;;;;148.70;64.07;;;;;;;-1.82;58.09;100358.95;2081607;85;29791;-62
2021/03/11 02:01:15;;;;;;;146.32;66.35;;;;;;;-1.82;58.27;100349.76;2085711;85;31252;-64
2021/03/11 02:04:17;;;;;;;146.50;66.40;;;;;;;-1.82;58.28;100345.81;2125266;83;33123;-63
2021/03/11 02:07:19;;;;;;;142.57;64.30;;;;;;;-1.81;58.33;100330.92;2124109;83;30610;-64
2021/03/11 02:10:24;;;;;;;137.65;63.15;;;;;;;-1.83;58.52;100327.00;2124685;82;27817;-63
2021/03/11 02:13:45;;;;;;;138.30;62.15;;;;;;;-1.84;58.43;100319.54;2098278;81;28661;-65
2021/03/11 02:16:51;;;;;;;152.72;65.08;;;;;;;-1.83;58.54;100311.24;2084041;83;33542;-64
2021/03/11 02:20:14;;;;;;;133.80;62.40;;;;;;;-1.82;58.66;100311.69;2139237;83;34062;-62
2021/03/11 02:23:44;;;;;;;134.52;64.07;;;;;;;-1.81;58.46;100308.16;2117745;83;28453;-62
2021/03/11 02:27:22;;;;;;;133.65;60.40;;;;;;;-1.79;58.59;100298.98;2098538;83;27703;-63
2021/03/11 02:30:25;;;;;;;141.35;60.48;;;;;;;-1.78;58.87;100302.05;2112171;83;29947;-63
2021/03/11 02:33:28;;;;;;;134.32;60.00;;;;;;;-1.77;58.66;100305.11;2155687;82;31625;-63
2021/03/11 02:36:30;;;;;;;145.55;63.23;;;;;;;-1.78;58.91;100295.03;2125534;83;33166;-63
2021/03/11 02:39:33;;;;;;;143.30;61.40;;;;;;;-1.77;59.01;100291.98;2141288;83;29169;-63
2021/03/11 02:42:37;;;;;;;132.80;59.08;;;;;;;-1.76;58.80;100289.80;2125297;83;27658;-63
2021/03/11 02:45:41;;;;;;;126.58;59.88;;;;;;;-1.77;58.93;100290.22;2125991;83;28889;-63
2021/03/11 02:48:45;;;;;;;125.78;59.03;;;;;;;-1.76;58.92;100298.54;2141034;83;32228;-65
2021/03/11 02:51:49;;;;;;;130.87;60.80;;;;;;;-1.76;58.94;100298.99;2125136;82;33126;-64
2021/03/11 02:54:53;;;;;;;131.13;59.07;;;;;;;-1.74;58.99;100293.30;2124755;83;29158;-64
2021/03/11 02:57:55;;;;;;;126.45;58.30;;;;;;;-1.72;58.99;100283.66;2141224;83;27734;-65
2021/03/11 03:00:59;;;;;;;130.65;59.75;;;;;;;-1.70;58.89;100278.86;2125486;83;28879;-64
2021/03/11 03:04:02;;;;;;;120.90;57.27;;;;;;;-1.71;58.92;100270.54;2124303;83;32115;-64
2021/03/11 03:07:04;;;;;;;116.65;54.75;;;;;;;-1.70;58.93;100263.52;2141049;83;34068;-63
2021/03/11 03:10:08;;;;;;;118.30;55.45;;;;;;;-1.70;59.17;100258.27;2125131;83;29159;-64
2021/03/11 03:13:14;;;;;;;125.75;58.92;;;;;;;-1.70;59.04;100257.84;2122271;83;27711;-65
2021/03/11 03:16:17;;;;;;;112.45;54.45;;;;;;;-1.71;59.00;100260.03;2120539;83;28804;-64
2021/03/11 03:19:19;;;;;;;115.17;56.90;;;;;;;-1.73;59.06;100255.22;2119509;83;31165;-64
2021/03/11 03:22:22;;;;;;;112.80;55.15;;;;;;;-1.71;59.12;100247.33;2119594;83;33541;-64
2021/03/11 03:25:24;;;;;;;119.10;55.23;;;;;;;-1.71;59.23;100240.75;2120403;83;30147;-64
2021/03/11 03:28:26;;;;;;;114.35;54.27;;;;;;;-1.72;59.18;100237.69;2120278;83;27721;-65
2021/03/11 03:31:28;;;;;;;109.03;51.42;;;;;;;-1.71;59.09;100231.14;2120376;83;31214;-64
2021/03/11 03:34:30;;;;;;;111.97;52.05;;;;;;;-1.70;59.31;100225.02;2120455;83;33488;-65
2021/03/11 03:37:34;;;;;;;109.30;52.45;;;;;;;-1.70;59.33;100221.08;2130752;82;34528;-64
2021/03/11 03:40:37;;;;;;;119.22;53.50;;;;;;;-1.70;59.17;100217.14;2119959;83;29179;-64
2021/03/11 03:43:40;;;;;;;110.92;53.50;;;;;;;-1.67;59.35;100210.14;2120083;83;27725;-64
2021/03/11 03:46:43;;;;;;;99.32;48.95;;;;;;;-1.70;59.39;100201.80;2119381;83;28803;-64
2021/03/11 03:49:45;;;;;;;99.67;48.13;;;;;;;-1.72;59.60;100191.31;2120399;83;31158;-64
2021/03/11 03:52:48;;;;;;;109.67;49.45;;;;;;;-1.71;59.46;100188.23;2120414;83;33103;-63
2021/03/11 03:55:55;;;;;;;106.00;48.95;;;;;;;-1.70;59.47;100188.67;2118621;83;29584;-64
2021/03/11 03:59:00;;;;;;;92.60;47.23;;;;;;;-1.70;59.63;100175.12;2120159;83;27768;-63
2021/03/11 04:02:04;;;;;;;105.10;50.92;;;;;;;-1.69;59.62;100180.81;2118790;83;29689;-63
2021/03/11 04:05:08;;;;;;;105.43;50.67;;;;;;;-1.69;59.55;100176.88;2119535;83;32059;-63
2021/03/11 04:08:10;;;;;;;102.10;47.35;;;;;;;-1.64;59.55;100174.65;2120263;83;33982;-65
2021/03/11 04:11:15;;;;;;;97.08;46.15;;;;;;;-1.62;59.55;100169.85;2120299;83;29168;-63
2021/03/11 04:14:18;;;;;;;69.83;33.60;;;;;;;-1.60;59.63;100164.16;2119669;83;27594;-64
2021/03/11 04:17:20;;;;;;;97.12;44.45;;;;;;;-1.58;59.55;100149.70;2120110;83;29027;-63
2021/03/11 04:20:23;;;;;;;83.33;44.25;;;;;;;-1.55;59.55;100141.81;2120193;83;31154;-62
2021/03/11 04:23:25;;;;;;;86.32;44.73;;;;;;;-1.54;59.46;100119.47;2118823;83;33079;-64
2021/03/11 04:26:31;;;;;;;84.17;42.40;;;;;;;-1.48;59.46;100113.77;2117067;83;29231;-64
2021/03/11 04:29:33;;;;;;;88.80;41.65;;;;;;;-1.47;59.66;100112.44;2120504;83;27842;-64
2021/03/11 04:32:36;;;;;;;82.00;39.83;;;;;;;-1.45;59.52;100096.23;2120381;83;29754;-63
2021/03/11 04:35:39;;;;;;;86.63;44.73;;;;;;;-1.40;59.46;100101.05;2120403;83;31146;-63
2021/03/11 04:38:41;;;;;;;89.00;43.80;;;;;;;-1.38;59.35;100097.08;2120613;83;33086;-64
2021/03/11 04:41:44;;;;;;;80.42;39.90;;;;;;;-1.33;59.17;100103.66;2120588;83;28359;-64
2021/03/11 04:44:46;;;;;;;85.38;41.50;;;;;;;-1.30;59.29;100097.94;2120747;83;27757;-63
2021/03/11 04:47:48;;;;;;;84.32;39.92;;;;;;;-1.26;59.02;100104.05;2120610;82;27906;-63
2021/03/11 04:50:50;;;;;;;78.02;39.38;;;;;;;-1.22;58.92;100096.14;2120597;83;30335;-63
2021/03/11 04:53:54;;;;;;;85.70;41.08;;;;;;;-1.16;58.83;100097.00;2120445;83;33133;-63
2021/03/11 04:56:56;;;;;;;82.27;39.85;;;;;;;-1.13;58.79;100078.59;2120031;83;30117;-63
2021/03/11 04:59:59;;;;;;;84.20;41.05;;;;;;;-1.09;58.69;100081.19;2120301;83;27762;-63
2021/03/11 05:03:02;;;;;;;80.25;42.08;;;;;;;-1.05;58.59;100078.09;2120313;83;28874;-63
2021/03/11 05:06:05;;;;;;;76.50;39.48;;;;;;;-1.01;58.56;100067.14;2120156;83;31161;-64
2021/03/11 05:09:08;;;;;;;79.58;38.38;;;;;;;-0.97;58.42;100064.89;2120417;83;33941;-63
2021/03/11 05:12:11;;;;;;;81.85;38.80;;;;;;;-0.94;58.32;100053.94;2120700;83;29168;-64
2021/03/11 05:15:13;;;;;;;74.17;37.15;;;;;;;-0.89;58.21;100042.49;2120827;83;27849;-63
2021/03/11 05:18:16;;;;;;;76.17;38.67;;;;;;;-0.86;58.10;100049.94;2120658;83;28774;-64
2021/03/11 05:21:18;;;;;;;85.28;40.03;;;;;;;-0.83;58.12;100042.04;2120458;83;30000;-64
2021/03/11 05:24:20;;;;;;;66.45;35.73;;;;;;;-0.79;57.91;100040.25;2120468;83;35455;-64
2021/03/11 05:27:22;;;;;;;77.08;40.73;;;;;;;-0.77;57.82;100030.59;2120392;83;29261;-64
2021/03/11 05:30:44;;;;;;;90.87;41.40;;;;;;;-0.74;57.76;100020.02;2120802;83;27804;-63
2021/03/11 05:33:46;;;;;;;83.78;42.05;;;;;;;-0.70;57.70;100032.28;2073113;85;28816;-63
2021/03/11 05:36:48;;;;;;;83.87;41.25;;;;;;;-0.67;57.72;100023.05;2057533;85;31163;-64
2021/03/11 05:39:50;;;;;;;95.47;42.23;;;;;;;-0.65;57.63;100013.81;2074271;85;33113;-64
2021/03/11 05:42:53;;;;;;;82.10;40.92;;;;;;;-0.60;57.55;100013.80;2067821;85;29169;-64
2021/03/11 05:45:57;;;;;;;73.05;38.02;;;;;;;-0.58;57.49;100001.05;2086200;85;27790;-63
2021/03/11 05:49:00;;;;;;;74.97;39.95;;;;;;;-0.55;57.35;99982.61;2071504;85;30239;-64
2021/03/11 05:52:02;;;;;;;80.57;41.28;;;;;;;-0.54;57.31;99973.84;2051300;86;33495;-62
2021/03/11 05:55:07;;;;;;;84.42;42.35;;;;;;;-0.50;57.28;99974.67;2038029;86;33218;-63
2021/03/11 05:58:09;;;;;;;79.32;39.83;;;;;;;-0.47;57.25;99970.70;2077360;85;29173;-65
2021/03/11 06:01:12;;;;;;;68.37;34.60;;;;;;;-0.42;57.14;99963.64;2054541;85;27734;-64
2021/03/11 06:04:15;;;;;;;87.78;41.77;;;;;;;-0.38;57.01;99956.58;2075254;85;28833;-65
2021/03/11 06:07:18;;;;;;;74.32;38.28;;;;;;;-0.36;57.01;99950.41;2059114;85;31654;-64
2021/03/11 06:10:22;;;;;;;76.10;41.28;;;;;;;-0.33;56.93;99936.36;2036580;86;33120;-64
2021/03/11 06:13:25;;;;;;;73.07;38.10;;;;;;;-0.29;56.87;99925.34;2078104;85;29146;-64
2021/03/11 06:16:31;;;;;;;76.65;39.20;;;;;;;-0.23;56.78;99926.14;2056685;85;28091;-64
2021/03/11 06:19:34;;;;;;;82.67;37.48;;;;;;;-0.17;56.64;99920.82;2082455;85;28859;-64
2021/03/11 06:22:36;;;;;;;76.67;39.60;;;;;;;-0.10;56.54;99917.67;2084619;85;31151;-65
2021/03/11 06:25:39;;;;;;;76.65;37.20;;;;;;;-0.05;56.47;99907.92;2085229;85;33219;-63
2021/03/11 06:28:50;;;;;;;72.95;38.10;;;;;;;0.04;56.39;99906.94;2095654;83;29167;-64
2021/03/11 06:31:57;;;;;;;71.57;36.63;;;;;;;0.10;56.32;99901.61;2015121;86;27755;-64
2021/03/11 06:34:59;;;;;;;75.97;39.15;;;;;;;0.20;56.12;99894.87;2064947;85;29878;-64
2021/03/11 06:38:02;;;;;;;75.72;37.03;;;;;;;0.27;56.13;99895.23;2035269;86;31171;-64
2021/03/11 06:41:04;;;;;;;76.60;37.35;;;;;;;0.33;56.08;99879.78;2041444;86;31940;-64
2021/03/11 06:44:06;;;;;;;76.10;36.58;;;;;;;0.41;55.93;99892.41;2081804;85;29162;-64
2021/03/11 06:47:14;;;;;;;74.85;38.85;;;;;;;0.48;55.76;99886.14;2024762;87;27610;-64
2021/03/11 06:50:16;;;;;;;70.15;37.93;;;;;;;0.55;55.76;99884.28;2065466;85;28905;-64
2021/03/11 06:53:19;;;;;;;79.15;41.60;;;;;;;0.63;55.64;99870.98;2061411;85;31110;-64
2021/03/11 06:56:22;;;;;;;77.40;38.08;;;;;;;0.68;55.49;99870.47;2060704;84;33130;-64
2021/03/11 06:59:25;;;;;;;76.82;36.28;;;;;;;0.73;55.45;99866.86;2040978;86;29160;-65
2021/03/11 07:02:28;;;;;;;71.55;38.02;;;;;;;0.81;55.22;99861.92;2030195;86;27659;-64
2021/03/11 07:05:38;;;;;;;64.85;34.90;;;;;;;0.88;55.19;99859.16;2050546;85;28859;-63
2021/03/11 07:08:53;;;;;;;69.12;35.55;;;;;;;0.94;54.92;99846.73;2059422;86;31193;-64
2021/03/11 07:11:55;;;;;;;79.72;35.85;;;;;;;1.01;54.80;99840.01;2073457;85;33126;-64
2021/03/11 07:15:03;;;;;;;72.17;35.43;;;;;;;1.08;54.65;99836.81;2060798;86;28461;-63
2021/03/11 07:18:10;;;;;;;77.40;36.80;;;;;;;1.14;54.54;99834.53;2077819;85;27755;-63
2021/03/11 07:21:13;;;;;;;77.97;38.70;;;;;;;1.19;54.39;99822.99;2082567;85;28106;-64
2021/03/11 07:24:36;;;;;;;67.45;36.53;;;;;;;1.25;54.45;99821.11;2041267;86;31870;-63
2021/03/11 07:27:42;;;;;;;70.78;38.38;;;;;;;1.30;54.11;99804.75;2067188;85;33137;-63
2021/03/11 07:31:00;;;;;;;72.05;36.70;;;;;;;1.32;54.21;99803.84;2049430;85;29181;-63
2021/03/11 07:34:02;;;;;;;89.20;47.75;;;;;;;1.37;54.01;99794.51;2063830;85;27947;-63
2021/03/11 07:37:05;;;;;;;78.40;36.63;;;;;;;1.38;53.93;99796.25;2075783;84;28755;-63
2021/03/11 07:40:08;;;;;;;81.45;39.23;;;;;;;1.40;54.08;99794.45;2069887;85;32568;-65
2021/03/11 07:43:13;;;;;;;77.92;39.73;;;;;;;1.44;53.94;99776.31;2076006;85;33108;-63
2021/03/11 07:46:15;;;;;;;47.35;25.37;;;;;;;1.47;54.12;99771.44;2116251;83;29341;-64
2021/03/11 07:49:18;;;;;;;71.25;37.80;;;;;;;1.53;53.93;99774.40;2108235;84;27754;-63
2021/03/11 07:57:27;;;;;;;67.90;34.63;;;;;;;1.59;53.95;99771.61;2087757;84;31798;-63
2021/03/11 08:00:30;;;;;;;65.70;34.15;;;;;;;1.64;53.96;99767.11;2103464;84;33140;-63
2021/03/11 08:03:33;;;;;;;57.15;33.63;;;;;;;1.71;54.06;99754.63;2090589;84;29111;-63
2021/03/11 08:06:36;;;;;;;67.45;35.45;;;;;;;1.80;54.15;99752.66;2080906;84;27710;-64
2021/03/11 08:09:39;;;;;;;62.50;31.97;;;;;;;1.92;54.13;99747.56;2083195;84;28908;-64
2021/03/11 08:12:42;;;;;;;73.20;30.57;;;;;;;2.01;54.02;99737.23;2083224;84;31264;-63
2021/03/11 08:15:45;;;;;;;58.50;31.25;;;;;;;2.09;53.79;99731.77;2079070;84;33131;-62
2021/03/11 08:18:51;;;;;;;52.03;29.75;;;;;;;2.16;53.99;99727.20;2080974;85;53925;-62
2021/03/11 08:21:53;;;;;;;61.05;31.25;;;;;;;2.25;53.88;99719.03;2116631;84;27626;-62
2021/03/11 08:24:55;;;;;;;56.83;30.23;;;;;;;2.36;54.02;99720.09;2085630;84;28852;-62
2021/03/11 08:28:02;;;;;;;54.58;28.42;;;;;;;2.47;53.89;99710.56;2111331;84;31166;-62
2021/03/11 08:31:06;;;;;;;49.70;29.27;;;;;;;2.57;53.85;99694.42;2094348;84;34012;-63
2021/03/11 08:34:08;;;;;;;61.95;29.27;;;;;;;2.68;53.64;99684.88;2090256;85;30116;-62
2021/03/11 08:37:23;;;;;;;52.60;27.37;;;;;;;2.78;53.59;99678.00;2088447;85;27788;-62
2021/03/11 08:40:42;;;;;;;48.10;25.97;;;;;;;2.89;53.61;99675.95;2086638;84;28809;-63
2021/03/11 08:43:48;;;;;;;55.90;27.17;;;;;;;3.03;53.34;99662.30;2084832;84;31259;-64
2021/03/11 08:46:52;;;;;;;48.23;27.22;;;;;;;3.14;53.59;99649.65;2096673;84;34116;-64
2021/03/11 08:49:54;;;;;;;48.65;27.35;;;;;;;3.27;53.47;99642.66;2098218;84;29227;-62
2021/03/11 08:52:57;;;;;;;43.75;25.72;;;;;;;3.40;53.51;99629.89;2139293;82;27693;-63
2021/03/11 08:55:59;;;;;;;47.83;26.90;;;;;;;3.52;53.41;99615.41;2115856;84;29849;-62
2021/03/11 08:59:11;;;;;;;45.70;26.75;;;;;;;3.63;53.29;99611.98;2113607;84;32548;-62
2021/03/11 09:02:31;;;;;;;48.40;26.90;;;;;;;3.76;53.24;99615.07;2118075;82;33100;-63
2021/03/11 09:05:49;;;;;;;43.05;26.17;;;;;;;3.84;53.26;99606.88;2093174;82;29181;-63
2021/03/11 09:08:53;;;;;;;45.35;26.25;;;;;;;3.92;53.05;99596.42;2106962;84;27673;-63
2021/03/11 09:11:55;;;;;;;49.13;26.00;;;;;;;3.98;52.96;99581.24;2102986;82;28965;-65
2021/03/11 09:15:00;;;;;;;47.33;26.77;;;;;;;3.97;52.97;99575.53;2102093;84;31154;-63
2021/03/11 09:18:03;;;;;;;33.23;20.07;;;;;;;3.96;53.00;99568.06;2109106;84;33122;-63
2021/03/11 09:21:08;;;;;;;46.28;25.65;;;;;;;4.00;53.04;99563.03;2110762;82;29136;-63
2021/03/11 09:24:18;;;;;;;47.93;26.77;;;;;;;4.02;53.07;99563.84;2110006;84;27836;-63
2021/03/11 09:27:21;;;;;;;46.92;26.82;;;;;;;4.04;53.09;99547.92;2076981;85;29788;-63
2021/03/11 09:30:35;;;;;;;43.28;24.87;;;;;;;4.00;53.10;99548.45;2078720;84;32082;-62
2021/03/11 09:33:47;;;;;;;47.17;26.10;;;;;;;4.07;53.06;99536.73;2175419;79;27688;-67
2021/03/11 09:36:49;;;;;;;59.05;25.92;;;;;;;4.05;53.40;99527.97;2151957;82;27621;-71
2021/03/11 09:39:59;;;;;;;40.28;24.10;;;;;;;4.19;53.60;99523.95;2151818;82;29706;-63
2021/03/11 09:43:27;;;;;;;41.37;24.65;;;;;;;4.31;53.61;99511.57;2151292;79;31154;-63
2021/03/11 09:49:42;;;;;;;46.60;24.97;;;;;;;4.60;53.92;99505.66;2252423;77;27663;-67
2021/03/11 09:52:58;;;;;;;43.92;25.92;;;;;;;4.61;54.10;99499.88;2217591;80;27628;-63
2021/03/11 09:56:01;;;;;;;41.02;24.15;;;;;;;4.65;54.54;99505.01;2213689;80;30132;-63
2021/03/11 09:59:08;;;;;;;46.50;24.47;;;;;;;4.79;54.65;99499.66;2198353;81;31142;-67
2021/03/11 10:02:11;;;;;;;46.15;25.97;;;;;;;4.83;54.68;99502.12;2194152;80;33957;-65
2021/03/11 10:05:13;;;;;;;42.58;25.25;;;;;;;4.90;54.75;99500.09;2179738;80;28537;-70
2021/03/11 10:08:33;;;;;;;40.90;23.83;;;;;;;4.95;54.76;99495.48;2204619;80;27744;-76
2021/03/11 10:11:45;;;;;;;41.33;25.12;;;;;;;5.01;54.70;99487.25;2217039;80;28825;-67
2021/03/11 10:14:47;;;;;;;44.42;26.48;;;;;;;5.06;54.80;99477.77;2217310;80;31137;-68
2021/03/11 10:18:09;;;;;;;44.73;28.00;;;;;;;5.11;54.75;99471.82;2169477;80;33270;-70
2021/03/11 10:21:12;;;;;;;45.10;26.70;;;;;;;5.20;54.78;99466.59;2216759;80;28857;-66
2021/03/11 10:24:41;;;;;;;40.65;25.72;;;;;;;5.30;54.78;99458.64;2216971;80;27739;-67
2021/03/11 10:27:48;;;;;;;49.90;29.37;;;;;;;5.48;54.51;99458.36;2193119;80;29218;-66
2021/03/11 10:30:55;;;;;;;41.80;25.95;;;;;;;5.71;54.45;99448.99;2170988;80;32033;-64
2021/03/11 10:34:09;;;;;;;49.63;28.60;;;;;;;5.92;54.13;99440.09;2216689;80;33162;-66
2021/03/11 10:37:13;;;;;;;40.67;25.20;;;;;;;6.09;53.67;99430.52;2203867;80;28318;-72
2021/03/11 10:40:25;;;;;;;43.42;26.35;;;;;;;6.20;52.89;99424.72;2208501;80;28219;-63
2021/03/11 10:43:28;;;;;;;37.98;24.07;;;;;;;6.27;53.13;99419.98;2181477;80;30150;-64
2021/03/11 10:46:30;;;;;;;37.60;24.25;;;;;;;6.27;52.88;99418.66;2182378;80;31408;-64
2021/03/11 10:49:38;;;;;;;52.90;28.92;;;;;;;6.34;52.92;99418.75;2188729;80;34111;-62
2021/03/11 10:52:51;;;;;;;42.62;25.88;;;;;;;6.40;52.95;99407.83;2202057;80;28915;-64
2021/03/11 10:55:58;;;;;;;46.15;26.68;;;;;;;6.39;52.86;99413.60;2196719;78;27850;-64
2021/03/11 10:59:05;;;;;;;34.00;23.42;;;;;;;6.41;52.94;99406.02;2195583;81;29438;-70
2021/03/11 11:02:07;;;;;;;39.67;23.83;;;;;;;6.33;52.78;99391.30;2178003;81;31154;-68
2021/03/11 11:05:11;;;;;;;33.33;21.90;;;;;;;6.26;53.10;99394.31;2177981;81;33100;-66
2021/03/11 11:08:13;;;;;;;39.40;26.07;;;;;;;6.17;53.29;99388.47;2174059;80;30104;-66
2021/03/11 11:11:17;;;;;;;48.45;26.48;;;;;;;6.11;53.65;99389.23;2214891;80;27645;-65
2021/03/11 11:14:19;;;;;;;39.08;24.63;;;;;;;6.08;54.58;99380.45;2183982;80;28866;-65
2021/03/11 11:17:22;;;;;;;38.55;26.82;;;;;;;6.04;55.12;99374.02;2182156;80;31347;-64
2021/03/11 11:20:29;;;;;;;42.62;28.80;;;;;;;5.91;55.69;99358.61;2177826;81;33564;-65
2021/03/11 11:23:32;;;;;;;45.75;28.62;;;;;;;5.84;56.12;99357.15;2196903;80;28040;-66
2021/03/11 11:26:34;;;;;;;40.67;23.27;;;;;;;5.81;56.10;99359.09;2196771;80;27803;-66
2021/03/11 11:29:36;;;;;;;36.70;24.47;;;;;;;5.75;55.94;99347.80;2192264;80;28865;-67
2021/03/11 11:32:38;;;;;;;39.60;23.83;;;;;;;5.72;55.95;99345.27;2210406;80;31139;-67
2021/03/11 11:35:41;;;;;;;53.70;35.60;;;;;;;5.68;55.70;99331.75;2185801;80;33109;-67
2021/03/11 11:38:43;;;;;;;43.83;27.32;;;;;;;5.66;55.82;99316.79;2189155;80;29296;-67
2021/03/11 11:41:45;;;;;;;45.20;29.92;;;;;;;5.66;55.69;99320.78;2177180;81;28036;-66
2021/03/11 11:44:47;;;;;;;40.75;24.90;;;;;;;5.70;55.65;99314.40;2194691;80;28826;-67
2021/03/11 11:47:50;;;;;;;36.93;23.65;;;;;;;5.75;55.64;99297.79;2180619;80;31126;-69
2021/03/11 11:50:53;;;;;;;42.85;26.42;;;;;;;5.79;55.50;99291.41;2181172;81;33114;-65
2021/03/11 11:53:55;;;;;;;38.92;25.88;;;;;;;5.87;55.57;99283.92;2181529;81;28857;-67
2021/03/11 11:56:57;;;;;;;41.75;26.27;;;;;;;5.93;55.45;99263.71;2181455;81;27646;-66
2021/03/11 12:00:00;;;;;;;53.17;34.33;;;;;;;5.99;55.11;99249.70;2181603;81;28827;-66
2021/03/11 12:03:02;;;;;;;39.23;24.87;;;;;;;6.03;55.26;99245.56;2204036;80;31139;-66
2021/03/11 12:06:05;;;;;;;36.53;24.55;;;;;;;6.11;55.13;99241.20;2219870;80;33101;-68
2021/03/11 12:09:07;;;;;;;43.20;23.70;;;;;;;6.17;55.06;99242.70;2220245;80;28922;-67
2021/03/11 12:12:10;;;;;;;35.85;21.15;;;;;;;6.22;55.03;99249.95;2220046;80;27730;-67
2021/03/11 12:15:12;;;;;;;38.75;23.57;;;;;;;6.28;55.16;99240.36;2193114;80;28752;-67
2021/03/11 12:18:15;;;;;;;33.67;21.42;;;;;;;6.31;55.02;99245.53;2191447;80;31123;-67
2021/03/11 12:21:17;;;;;;;40.43;20.77;;;;;;;6.32;54.88;99231.30;2219653;80;34097;-67
2021/03/11 12:24:19;;;;;;;33.08;20.55;;;;;;;6.30;54.92;99230.52;2212368;80;28979;-67
2021/03/11 12:27:24;;;;;;;36.55;21.75;;;;;;;6.31;55.25;99226.04;2180609;81;27741;-68
2021/03/11 12:30:26;;;;;;;41.00;21.42;;;;;;;6.31;55.62;99219.39;2186393;80;28825;-67
2021/03/11 12:33:28;;;;;;;32.20;21.85;;;;;;;6.26;55.76;99210.80;2215897;80;32062;-66
2021/03/11 12:36:30;;;;;;;29.77;18.70;;;;;;;6.23;56.02;99200.70;2185775;80;33100;-67
2021/03/11 12:39:33;;;;;;;31.80;18.85;;;;;;;6.24;56.19;99201.55;2167914;80;29707;-68
2021/03/11 12:42:35;;;;;;;32.95;22.30;;;;;;;6.27;56.33;99199.23;2166927;81;27755;-67
2021/03/11 12:45:37;;;;;;;43.15;25.68;;;;;;;6.29;56.53;99200.86;2142285;81;28800;-68
2021/03/11 12:48:39;;;;;;;47.45;28.80;;;;;;;6.30;57.22;99201.70;2109453;83;32240;-67
2021/03/11 12:51:41;;;;;;;44.13;30.35;;;;;;;6.25;57.24;99207.74;2165336;81;33223;-67
2021/03/11 12:54:44;;;;;;;48.40;32.55;;;;;;;6.21;57.45;99201.24;2158537;81;27756;-69
2021/03/11 12:57:46;;;;;;;46.33;32.35;;;;;;;6.15;57.42;99196.70;2110990;82;27729;-67
2021/03/11 13:00:50;;;;;;;44.90;28.98;;;;;;;6.11;57.67;99188.02;2118195;83;28838;-67
2021/03/11 13:03:52;;;;;;;46.40;32.17;;;;;;;6.07;58.06;99181.12;2130193;83;31204;-67
2021/03/11 13:06:55;;;;;;;42.80;28.12;;;;;;;6.01;58.18;99175.64;2161390;81;33102;-66
2021/03/11 13:09:59;;;;;;;42.60;28.67;;;;;;;5.95;58.43;99173.24;2098781;84;28870;-67
2021/03/11 13:13:01;;;;;;;43.55;31.15;;;;;;;5.93;58.73;99175.11;2142447;81;27970;-68
2021/03/11 13:16:04;;;;;;;43.15;28.47;;;;;;;5.89;58.73;99187.70;2128534;83;28909;-67
2021/03/11 13:19:06;;;;;;;41.23;27.15;;;;;;;5.87;59.05;99185.58;2126436;83;31146;-65
2021/03/11 13:22:09;;;;;;;41.18;26.07;;;;;;;5.84;59.38;99185.72;2113716;83;33161;-67
2021/03/11 13:25:13;;;;;;;40.23;27.45;;;;;;;5.81;59.78;99183.20;2135688;83;28859;-66
2021/03/11 13:28:15;;;;;;;42.55;26.55;;;;;;;5.81;60.46;99182.36;2103618;83;27775;-70
2021/03/11 13:31:17;;;;;;;34.55;21.62;;;;;;;5.80;60.85;99177.49;2101607;84;28896;-67
2021/03/11 13:34:19;;;;;;;39.88;24.23;;;;;;;5.81;61.74;99171.24;2124776;83;31216;-67
2021/03/11 13:37:22;;;;;;;33.85;20.80;;;;;;;5.85;62.00;99169.33;2102208;83;33109;-72
2021/03/11 13:40:25;;;;;;;31.65;21.27;;;;;;;5.91;62.52;99173.87;2132149;83;28868;-67
2021/03/11 13:43:27;;;;;;;37.33;22.40;;;;;;;5.96;62.68;99169.65;2115833;83;27719;-67
2021/03/11 13:46:30;;;;;;;85.62;43.45;;;;;;;6.00;62.51;99161.95;2102277;83;29025;-64
2021/03/11 13:49:32;;;;;;;34.50;21.20;;;;;;;6.07;62.93;99158.04;2096901;84;32057;-69
2021/03/11 13:52:35;;;;;;;39.03;22.90;;;;;;;6.14;63.13;99155.09;2103436;83;33167;-65
2021/03/11 13:55:38;;;;;;;39.53;24.18;;;;;;;6.16;63.60;99151.41;2099920;83;28845;-65
2021/03/11 13:58:40;;;;;;;35.28;23.83;;;;;;;6.19;63.29;99137.96;2104614;83;27710;-64
2021/03/11 14:01:43;;;;;;;35.63;23.92;;;;;;;6.24;63.27;99132.41;2108232;83;30091;-65
2021/03/11 14:04:46;;;;;;;39.08;23.32;;;;;;;6.27;63.54;99133.58;2100009;83;32568;-67
2021/03/11 14:07:48;;;;;;;41.58;26.10;;;;;;;6.26;63.59;99125.69;2107495;83;34283;-66
2021/03/11 14:10:51;;;;;;;39.73;25.90;;;;;;;6.23;63.49;99129.34;2116793;83;28860;-66
2021/03/11 14:13:54;;;;;;;33.20;23.25;;;;;;;6.21;63.51;99123.24;2111128;83;27963;-66
2021/03/11 14:16:58;;;;;;;34.33;23.55;;;;;;;6.20;63.79;99119.73;2122073;83;28823;-65